• Join FlightAware (Why Join?)
  • Login
  • US Flag 
06:57PM EST


 

Airport Tracker/Info


-or-


 

Live Flight TrackerFlight Track Log ✈ TAM3221 ✈ 01-Sep-2013 ✈ SBCF / CNF - SBSP / CGH

Flight Track Log - Related Links

Times and Time Zones

All times are in EDT time to prevent confusion due to time zone crossing. See the TAM3221 flight status page for this flight to view local times or setup timezone preferences in your user account.

Time Position Orientation Groundspeed Altitude Reporting Facility
EDT Latitude Longitude Course Direction KTS MPH feet Rate Location/Type
08:02PM -21.3102 -45.0753 212° Southwest  Level Estimated
08:03PM -21.3829 -45.1240 212° Southwest  Level Estimated
08:04PM -21.4556 -45.1727 212° Southwest  Level Estimated
08:05PM -21.5283 -45.2215 212° Southwest  Level Estimated
08:06PM -21.6010 -45.2703 212° Southwest  Level Estimated
08:07PM -21.6737 -45.3191 212° Southwest  Level Estimated
08:08PM -21.7463 -45.3680 212° Southwest  Level Estimated
08:09PM -21.8190 -45.4170 212° Southwest  Level Estimated
08:10PM -21.8916 -45.4660 212° Southwest  Level Estimated
08:11PM -21.9642 -45.5151 212° Southwest  Level Estimated
08:12PM -22.0368 -45.5642 212° Southwest  Level Estimated
08:13PM -22.1094 -45.6133 212° Southwest  Level Estimated
08:14PM -22.1819 -45.6625 212° Southwest  Level Estimated
08:15PM -22.2545 -45.7118 212° Southwest  Level Estimated
08:16PM -22.3270 -45.7611 212° Southwest  Level Estimated
08:17PM -22.3995 -45.8105 212° Southwest  Level Estimated
08:18PM -22.4721 -45.8599 212° Southwest  Level Estimated
08:19PM -22.5445 -45.9094 212° Southwest  Level Estimated
08:20PM -22.6170 -45.9589 212° Southwest  Level Estimated
08:21PM -22.6895 -46.0084 212° Southwest  Level Estimated
08:22PM -22.7619 -46.0581 212° Southwest  Level Estimated
08:23PM -22.8344 -46.1077 212° Southwest  Level Estimated
08:24PM -22.9068 -46.1575 212° Southwest  Level Estimated
08:25PM -22.9792 -46.2073 212° Southwest  Level Estimated
08:26PM -23.0516 -46.2571 212° Southwest  Level Estimated
08:27PM -23.1239 -46.3070 212° Southwest  Level Estimated
08:28PM -23.1963 -46.3569 212° Southwest  Level Estimated
08:29PM -23.2686 -46.4069 212° Southwest  Level Estimated
08:30PM -23.3410 -46.4570 212° Southwest  Level Estimated
08:31PM -23.4133 -46.5071 212° Southwest  Level Estimated
08:32PM -23.4855 -46.5573 212° Southwest  Level Estimated
08:33PM -23.5578 -46.6075 212° Southwest  Level Estimated
08:34PM -23.6267 -46.6554 213° Southwest  Level Estimated
08:35PM -23.6267 -46.6554 114° Southeast  Level Estimated
08:36PM -23.6267 -46.6554 114° Southeast  Level Estimated
08:37PM -23.6267 -46.6554 114° Southeast  Level Estimated
08:38PM -23.6267 -46.6554 114° Southeast  Level Estimated
08:39PM -23.6267 -46.6554 114° Southeast  Level Estimated
08:40PM -23.6267 -46.6554 114° Southeast  Level Estimated
08:41PM -23.6267 -46.6554 114° Southeast  Level Estimated
08:42PM -23.6267 -46.6554 114° Southeast  Level Estimated
08:43PM -23.6267 -46.6554 114° Southeast  Level Estimated
08:44PM -23.6267 -46.6554 114° Southeast  Level Estimated
08:45PM -23.6267 -46.6554 114° Southeast  Level Estimated
08:46PM -23.6267 -46.6554 114° Southeast  Level Estimated
08:47PM -23.6267 -46.6554 114° Southeast  Level Estimated
08:48PM -23.6267 -46.6554 114° Southeast  Level Estimated
08:49PM -23.6267 -46.6554 114° Southeast  Level Estimated
08:50PM -23.6267 -46.6554 114° Southeast  Level Estimated